Time;durP1;ratioP1;P1;durP2;ratioP2;P2;SDS_P1;SDS_P2;PMS_P1;PMS_P2;Temp;Humidity;BMP_temperature;BMP_pressure;BME280_temperature;BME280_humidity;BME280_pressure;Samples;Min_cycle;Max_cycle;Signal;HPM_P1;HPM_P2
2022/10/28 00:00:01;;;;;;;;;;;;;;;;;;5091249;27;19917;-66
2022/10/28 00:02:27;;;;;;;;;;;;;;;;;;5091213;28;20007;-67
2022/10/28 00:04:53;;;;;;;;;;;;;;;;;;5090032;28;20265;-67
2022/10/28 00:07:19;;;;;;;;;;;;;;;;;;5089626;28;19961;-67
2022/10/28 00:09:45;;;;;;;;;;;;;;;;;;5090020;28;19915;-66
2022/10/28 00:13:03;;;;;;;;;;;;;;;;;;5091401;27;19912;-67
2022/10/28 00:15:30;;;;;;;;;;;;;;;;;;5091732;28;20006;-67
2022/10/28 00:17:55;;;;;;;;;;;;;;;;;;5090074;28;19908;-66
2022/10/28 00:20:21;;;;;;;;;;;;;;;;;;5090879;28;19912;-67
2022/10/28 00:22:47;;;;;;;;;;;;;;;;;;5091182;28;19915;-67
2022/10/28 00:25:13;;;;;;;;;;;;;;;;;;5091142;28;19909;-66
2022/10/28 00:27:39;;;;;;;;;;;;;;;;;;5090972;28;20288;-66
2022/10/28 00:30:05;;;;;;;;;;;;;;;;;;5091042;28;19908;-67
2022/10/28 00:32:31;;;;;;;;;;;;;;;;;;5091239;28;19920;-67
2022/10/28 00:34:57;;;;;;;;;;;;;;;;;;5090560;28;19932;-67
2022/10/28 00:37:23;;;;;;;;;;;;;;;;;;5090911;28;19908;-67
2022/10/28 00:39:49;;;;;;;;;;;;;;;;;;5091084;28;19912;-67
2022/10/28 00:42:15;;;;;;;;;;;;;;;;;;5090451;28;20285;-67
2022/10/28 00:44:41;;;;;;;;;;;;;;;;;;5090831;28;19935;-67
2022/10/28 00:47:07;;;;;;;;;;;;;;;;;;5090758;28;19954;-67
2022/10/28 00:49:33;;;;;;;;;;;;;;;;;;5090321;28;19913;-67
2022/10/28 00:51:59;;;;;;;;;;;;;;;;;;5089310;28;20288;-67
2022/10/28 00:54:25;;;;;;;;;;;;;;;;;;5090632;28;19914;-67
2022/10/28 00:56:51;;;;;;;;;;;;;;;;;;5090171;28;19912;-67
2022/10/28 00:59:17;;;;;;;;;;;;;;;;;;5090537;28;19912;-67
2022/10/28 01:01:43;;;;;;;;;;;;;;;;;;5090414;28;19951;-67
2022/10/28 01:04:09;;;;;;;;;;;;;;;;;;5090050;28;19908;-67
2022/10/28 01:06:35;;;;;;;;;;;;;;;;;;5090560;28;19909;-67
2022/10/28 01:09:00;;;;;;;;;;;;;;;;;;5089921;28;19909;-68
2022/10/28 01:11:26;;;;;;;;;;;;;;;;;;5097390;28;20391;-67
2022/10/28 01:13:52;;;;;;;;;;;;;;;;;;5110503;28;20328;-67
2022/10/28 01:16:18;;;;;;;;;;;;;;;;;;5110115;28;19950;-67
2022/10/28 01:18:44;;;;;;;;;;;;;;;;;;5110469;28;20284;-67
2022/10/28 01:21:10;;;;;;;;;;;;;;;;;;5110447;28;19993;-67
2022/10/28 01:23:36;;;;;;;;;;;;;;;;;;5100672;28;19912;-67
2022/10/28 01:26:02;;;;;;;;;;;;;;;;;;5096713;28;20014;-67
2022/10/28 01:28:28;;;;;;;;;;;;;;;;;;5096824;28;19908;-67
2022/10/28 01:30:54;;;;;;;;;;;;;;;;;;5096357;28;19912;-67
2022/10/28 01:33:20;;;;;;;;;;;;;;;;;;5096655;28;19919;-67
2022/10/28 01:35:46;;;;;;;;;;;;;;;;;;5096851;28;19915;-67
2022/10/28 01:38:13;;;;;;;;;;;;;;;;;;5096237;28;20281;-67
2022/10/28 01:40:39;;;;;;;;;;;;;;;;;;5096501;28;19908;-68
2022/10/28 01:43:04;;;;;;;;;;;;;;;;;;5078323;28;20377;-67
2022/10/28 01:45:30;;;;;;;;;;;;;;;;;;5095948;28;19931;-67
2022/10/28 01:47:56;;;;;;;;;;;;;;;;;;5096363;28;19908;-67
2022/10/28 01:55:51;;;;;;;;;;;;;;;;;;5096180;28;19919;-68
2022/10/28 01:58:17;;;;;;;;;;;;;;;;;;5095912;28;19908;-67
2022/10/28 02:00:43;;;;;;;;;;;;;;;;;;5077940;28;19989;-67
2022/10/28 02:03:09;;;;;;;;;;;;;;;;;;5077924;28;19908;-67
2022/10/28 02:05:35;;;;;;;;;;;;;;;;;;5095694;28;19908;-67
2022/10/28 02:08:01;;;;;;;;;;;;;;;;;;5079355;28;20011;-67
2022/10/28 02:10:31;;;;;;;;;;;;;;;;;;5096278;28;19909;-67
2022/10/28 02:12:57;;;;;;;;;;;;;;;;;;5095369;28;19921;-67
2022/10/28 02:15:23;;;;;;;;;;;;;;;;;;5095820;28;19916;-67
2022/10/28 02:17:49;;;;;;;;;;;;;;;;;;5096043;28;20441;-67
2022/10/28 02:20:15;;;;;;;;;;;;;;;;;;5077210;28;19939;-67
2022/10/28 02:22:41;;;;;;;;;;;;;;;;;;5095774;28;19916;-67
2022/10/28 02:25:07;;;;;;;;;;;;;;;;;;5077414;28;19908;-67
2022/10/28 02:27:33;;;;;;;;;;;;;;;;;;5095412;28;19948;-67
2022/10/28 02:29:59;;;;;;;;;;;;;;;;;;5095555;28;19908;-67
2022/10/28 02:32:25;;;;;;;;;;;;;;;;;;5095384;28;19916;-67
2022/10/28 02:34:51;;;;;;;;;;;;;;;;;;5094277;28;20333;-67
2022/10/28 02:37:17;;;;;;;;;;;;;;;;;;5095389;28;19916;-67
2022/10/28 02:39:43;;;;;;;;;;;;;;;;;;5095548;28;19912;-67
2022/10/28 02:42:09;;;;;;;;;;;;;;;;;;5094922;28;20261;-67
2022/10/28 02:44:35;;;;;;;;;;;;;;;;;;5095346;28;20288;-67
2022/10/28 02:47:01;;;;;;;;;;;;;;;;;;5095141;28;20339;-67
2022/10/28 02:49:27;;;;;;;;;;;;;;;;;;5094963;28;20257;-67
2022/10/28 02:51:52;;;;;;;;;;;;;;;;;;5095044;28;20291;-67
2022/10/28 02:54:18;;;;;;;;;;;;;;;;;;5095126;28;20279;-67
2022/10/28 02:56:44;;;;;;;;;;;;;;;;;;5094777;28;19908;-67
2022/10/28 02:59:10;;;;;;;;;;;;;;;;;;5094920;28;19908;-67
2022/10/28 03:01:36;;;;;;;;;;;;;;;;;;5076322;28;19909;-67
2022/10/28 03:04:03;;;;;;;;;;;;;;;;;;5094895;28;19908;-67
2022/10/28 03:06:29;;;;;;;;;;;;;;;;;;5076561;28;19912;-68
2022/10/28 03:08:55;;;;;;;;;;;;;;;;;;5076279;28;20435;-67
2022/10/28 03:11:21;;;;;;;;;;;;;;;;;;5094515;28;20451;-67
2022/10/28 03:13:47;;;;;;;;;;;;;;;;;;5094659;28;20308;-67
2022/10/28 03:16:13;;;;;;;;;;;;;;;;;;5094859;28;19953;-67
2022/10/28 03:18:39;;;;;;;;;;;;;;;;;;5095136;28;20389;-67
2022/10/28 03:21:05;;;;;;;;;;;;;;;;;;5076466;28;20261;-67
2022/10/28 03:23:31;;;;;;;;;;;;;;;;;;5094126;28;19916;-67
2022/10/28 03:25:57;;;;;;;;;;;;;;;;;;5094429;28;19908;-67
2022/10/28 03:28:23;;;;;;;;;;;;;;;;;;5094457;28;19915;-67
2022/10/28 03:30:49;;;;;;;;;;;;;;;;;;5093910;28;19912;-67
2022/10/28 03:33:15;;;;;;;;;;;;;;;;;;5076186;28;19944;-67
2022/10/28 03:35:41;;;;;;;;;;;;;;;;;;5076142;28;19908;-67
2022/10/28 03:38:06;;;;;;;;;;;;;;;;;;5075791;28;20003;-68
2022/10/28 03:40:33;;;;;;;;;;;;;;;;;;5094402;28;19954;-68
2022/10/28 03:42:59;;;;;;;;;;;;;;;;;;5094290;28;19908;-68
2022/10/28 03:45:25;;;;;;;;;;;;;;;;;;5093539;28;19914;-68
2022/10/28 03:47:51;;;;;;;;;;;;;;;;;;5075992;28;19918;-68
2022/10/28 03:50:17;;;;;;;;;;;;;;;;;;5094137;28;19908;-68
2022/10/28 03:52:43;;;;;;;;;;;;;;;;;;5075490;28;20031;-68
2022/10/28 03:55:09;;;;;;;;;;;;;;;;;;5094050;28;19908;-68
2022/10/28 03:57:35;;;;;;;;;;;;;;;;;;5075939;28;20474;-68
2022/10/28 04:00:01;;;;;;;;;;;;;;;;;;5093754;28;20361;-68
2022/10/28 04:02:27;;;;;;;;;;;;;;;;;;5075973;28;20380;-68
2022/10/28 04:04:53;;;;;;;;;;;;;;;;;;5093527;28;19908;-68
2022/10/28 04:07:19;;;;;;;;;;;;;;;;;;5075824;28;19973;-68
2022/10/28 04:09:48;;;;;;;;;;;;;;;;;;5093932;28;19908;-68
2022/10/28 04:12:14;;;;;;;;;;;;;;;;;;5093156;28;19928;-68
2022/10/28 04:14:40;;;;;;;;;;;;;;;;;;5093832;28;20360;-68
2022/10/28 04:17:06;;;;;;;;;;;;;;;;;;5093981;28;20284;-68
2022/10/28 04:19:32;;;;;;;;;;;;;;;;;;5093440;28;20378;-68
2022/10/28 04:21:58;;;;;;;;;;;;;;;;;;5093811;28;20303;-68
2022/10/28 04:24:24;;;;;;;;;;;;;;;;;;5094352;28;20233;-67
2022/10/28 04:26:50;;;;;;;;;;;;;;;;;;5093285;28;19961;-68
2022/10/28 04:29:16;;;;;;;;;;;;;;;;;;5093786;28;19909;-69
2022/10/28 04:31:42;;;;;;;;;;;;;;;;;;5093624;28;19923;-68
2022/10/28 04:34:08;;;;;;;;;;;;;;;;;;5093235;28;19908;-68
2022/10/28 04:36:34;;;;;;;;;;;;;;;;;;5075489;28;19981;-68
2022/10/28 04:39:00;;;;;;;;;;;;;;;;;;5093597;28;19909;-68
2022/10/28 04:41:26;;;;;;;;;;;;;;;;;;5093210;28;19908;-68
2022/10/28 04:43:54;;;;;;;;;;;;;;;;;;5093588;28;19934;-68
2022/10/28 04:46:20;;;;;;;;;;;;;;;;;;5093566;28;19908;-68
2022/10/28 04:48:46;;;;;;;;;;;;;;;;;;5093148;28;19994;-68
2022/10/28 04:51:12;;;;;;;;;;;;;;;;;;5075393;28;20280;-68
2022/10/28 04:53:38;;;;;;;;;;;;;;;;;;5093576;28;19915;-68
2022/10/28 04:56:04;;;;;;;;;;;;;;;;;;5074951;28;20340;-68
2022/10/28 04:58:30;;;;;;;;;;;;;;;;;;5095770;28;20379;-68
2022/10/28 05:00:56;;;;;;;;;;;;;;;;;;5097295;28;20353;-68
2022/10/28 05:03:22;;;;;;;;;;;;;;;;;;5096831;28;20261;-68
2022/10/28 05:05:48;;;;;;;;;;;;;;;;;;5097160;28;19912;-68
2022/10/28 05:08:15;;;;;;;;;;;;;;;;;;5095067;28;19931;-66
2022/10/28 05:10:41;;;;;;;;;;;;;;;;;;5096677;28;19920;-66
2022/10/28 05:13:08;;;;;;;;;;;;;;;;;;5085075;28;19954;-67
2022/10/28 05:15:34;;;;;;;;;;;;;;;;;;5076468;28;19908;-66
2022/10/28 05:18:00;;;;;;;;;;;;;;;;;;5058340;28;19916;-66
2022/10/28 05:20:26;;;;;;;;;;;;;;;;;;5083443;28;20003;-66
2022/10/28 05:22:55;;;;;;;;;;;;;;;;;;5094863;28;19908;-67
2022/10/28 05:25:22;;;;;;;;;;;;;;;;;;5095586;28;19970;-66
2022/10/28 05:27:48;;;;;;;;;;;;;;;;;;5077915;28;19938;-66
2022/10/28 05:30:21;;;;;;;;;;;;;;;;;;5094442;28;19916;-65
2022/10/28 05:32:47;;;;;;;;;;;;;;;;;;5095104;28;19998;-68
2022/10/28 05:35:13;;;;;;;;;;;;;;;;;;5088965;28;19908;-66
2022/10/28 05:37:39;;;;;;;;;;;;;;;;;;5092409;28;19962;-66
2022/10/28 05:40:08;;;;;;;;;;;;;;;;;;5093365;28;19961;-66
2022/10/28 05:42:38;;;;;;;;;;;;;;;;;;5082542;28;19912;-68
2022/10/28 05:45:04;;;;;;;;;;;;;;;;;;5092163;28;19954;-67
2022/10/28 05:50:15;;;;;;;;;;;;;;;;;;3870235;28;20502;-65
2022/10/28 05:52:41;;;;;;;;;;;;;;;;;;5034329;28;20333;-66
2022/10/28 05:55:07;;;;;;;;;;;;;;;;;;5031260;28;20408;-65
2022/10/28 05:57:33;;;;;;;;;;;;;;;;;;5049666;28;20360;-65
2022/10/28 06:00:02;;;;;;;;;;;;;;;;;;5054225;28;19955;-65
2022/10/28 06:02:28;;;;;;;;;;;;;;;;;;5049607;28;19913;-65
2022/10/28 06:04:55;;;;;;;;;;;;;;;;;;5054775;28;19909;-64
2022/10/28 06:07:25;;;;;;;;;;;;;;;;;;5053693;28;19963;-64
2022/10/28 06:09:54;;;;;;;;;;;;;;;;;;5053363;28;19909;-63
2022/10/28 06:12:22;;;;;;;;;;;;;;;;;;5054082;28;20292;-63
2022/10/28 06:14:48;;;;;;;;;;;;;;;;;;5054877;28;19913;-64
2022/10/28 06:17:14;;;;;;;;;;;;;;;;;;5054747;28;20007;-66
2022/10/28 06:19:40;;;;;;;;;;;;;;;;;;5052410;28;20280;-66
2022/10/28 06:22:11;;;;;;;;;;;;;;;;;;5054709;28;20288;-64
2022/10/28 06:24:46;;;;;;;;;;;;;;;;;;5054223;28;20403;-65
2022/10/28 06:27:12;;;;;;;;;;;;;;;;;;5054176;28;19908;-66
2022/10/28 06:29:40;;;;;;;;;;;;;;;;;;5054654;28;19910;-65
2022/10/28 06:32:06;;;;;;;;;;;;;;;;;;5053334;28;20300;-64
2022/10/28 06:34:32;;;;;;;;;;;;;;;;;;5047946;28;19920;-65
2022/10/28 06:36:58;;;;;;;;;;;;;;;;;;5033962;28;20031;-66
2022/10/28 06:39:23;;;;;;;;;;;;;;;;;;5036347;28;19917;-65
2022/10/28 06:41:49;;;;;;;;;;;;;;;;;;5046598;28;19913;-66
2022/10/28 06:44:15;;;;;;;;;;;;;;;;;;5037686;28;19909;-66
2022/10/28 06:46:42;;;;;;;;;;;;;;;;;;5033812;28;19909;-67
2022/10/28 06:49:09;;;;;;;;;;;;;;;;;;5033911;28;19955;-66
2022/10/28 06:51:35;;;;;;;;;;;;;;;;;;5036587;28;20369;-66
2022/10/28 06:54:19;;;;;;;;;;;;;;;;;;5108695;27;19916;-65
2022/10/28 06:56:44;;;;;;;;;;;;;;;;;;5109092;28;20377;-65
2022/10/28 06:59:10;;;;;;;;;;;;;;;;;;5110823;28;19912;-65
2022/10/28 07:01:36;;;;;;;;;;;;;;;;;;5110232;28;19914;-65
2022/10/28 07:04:02;;;;;;;;;;;;;;;;;;5110677;28;19912;-65
2022/10/28 07:06:28;;;;;;;;;;;;;;;;;;5108774;28;19998;-66
2022/10/28 07:10:31;;;;;;;;;;;;;;;;;;5088686;27;20213;-67
2022/10/28 07:12:57;;;;;;;;;;;;;;;;;;5093914;28;20295;-66
2022/10/28 07:17:16;;;;;;;;;;;;;;;;;;5152325;27;20006;-67
2022/10/28 07:20:54;;;;;;;;;;;;;;;;;;5091051;27;19916;-67
2022/10/28 07:24:01;;;;;;;;;;;;;;;;;;5090530;27;19912;-65
2022/10/28 07:26:26;;;;;;;;;;;;;;;;;;5090809;28;20002;-65
2022/10/28 07:30:06;;;;;;;;;;;;;;;;;;5109560;27;19922;-68
2022/10/28 07:33:15;;;;;;;;;;;;;;;;;;5090863;27;19916;-67
2022/10/28 07:35:41;;;;;;;;;;;;;;;;;;5088967;28;20003;-67
2022/10/28 07:38:07;;;;;;;;;;;;;;;;;;5090458;28;19915;-66
2022/10/28 07:40:33;;;;;;;;;;;;;;;;;;5086167;28;19909;-65
2022/10/28 07:42:59;;;;;;;;;;;;;;;;;;5086907;28;19913;-67
2022/10/28 07:45:58;;;;;;;;;;;;;;;;;;5090228;27;19919;-67
2022/10/28 07:48:24;;;;;;;;;;;;;;;;;;5083246;28;19912;-66
2022/10/28 07:50:50;;;;;;;;;;;;;;;;;;5079544;28;19916;-66
2022/10/28 07:53:15;;;;;;;;;;;;;;;;;;5089196;28;19916;-67
2022/10/28 07:56:02;;;;;;;;;;;;;;;;;;5068896;28;20407;-67
2022/10/28 08:01:54;;;;;;;;;;;;;;;;;;5104766;28;19922;-69
2022/10/28 08:04:20;;;;;;;;;;;;;;;;;;5107977;28;20003;-70
2022/10/28 08:10:09;;;;;;;;;;;;;;;;;;5131245;27;19941;-67
2022/10/28 08:12:35;;;;;;;;;;;;;;;;;;5131279;28;19935;-67
2022/10/28 08:15:01;;;;;;;;;;;;;;;;;;5122534;28;20248;-67
2022/10/28 08:21:12;;;;;;;;;;;;;;;;;;5151001;27;19911;-66
2022/10/28 08:25:24;;;;;;;;;;;;;;;;;;5131097;27;19915;-67
2022/10/28 08:27:50;;;;;;;;;;;;;;;;;;5131156;28;19958;-67
2022/10/28 08:40:48;;;;;;;;;;;;;;;;;;5151374;27;20010;-65
2022/10/28 08:45:23;;;;;;;;;;;;;;;;;;5168183;27;19915;-67
2022/10/28 08:48:24;;;;;;;248.93;207.10;;;;;;;;;;5115175;27;20372;-67
2022/10/28 08:51:46;;;;;;;;;;;;;;;;;;5106650;27;20388;-66
2022/10/28 08:57:33;;;;;;;411.48;259.38;;;;;;;;;;5107196;27;20352;-65
2022/10/28 09:00:38;;;;;;;204.30;182.60;;;;;;;;;;5107071;27;19920;-66
2022/10/28 09:03:10;;;;;;;378.50;252.23;;;;;;;;;;5106287;28;20398;-66
2022/10/28 09:05:37;;;;;;;298.92;225.07;;;;;;;;;;5104617;28;20436;-67
2022/10/28 09:08:04;;;;;;;252.15;203.98;;;;;;;;;;5102894;28;20390;-66
2022/10/28 09:10:30;;;;;;;;;;;;;;;;;;5105942;28;20028;-66
2022/10/28 09:14:00;;;;;;;;;;;;;;;;;;5085596;27;20382;-65
2022/10/28 09:16:26;;;;;;;;;;;;;;;;;;5080142;28;19912;-67
2022/10/28 09:18:52;;;;;;;;;;;;;;;;;;5089753;28;19904;-65
2022/10/28 09:21:18;;;;;;;;;;;;;;;;;;5089174;28;19919;-66
2022/10/28 09:24:07;;;;;;;297.95;224.57;;;;;;;;;;5087166;28;20367;-66
2022/10/28 09:26:33;;;;;;;;;;;;;;;;;;5085992;28;20028;-66
2022/10/28 09:28:59;;;;;;;;;;;;;;;;;;5086420;28;19926;-66
2022/10/28 09:31:25;;;;;;;;;;;;;;;;;;5087008;28;19904;-65
2022/10/28 09:34:50;;;;;;;;;;;;;;;;;;5110026;27;19922;-66
2022/10/28 09:37:16;;;;;;;;;;;;;;;;;;5102785;28;19998;-64
2022/10/28 09:40:19;;;;;;;;;;;;;;;;;;4301235;27;24600965;-64
2022/10/28 09:43:26;;;;;;;;;;;;;;;;;;5098594;27;21063;-65
2022/10/28 09:46:11;;;;;;;;;;;;;;;;;;5111158;27;19916;-65
2022/10/28 09:48:37;;;;;;;;;;;;;;;;;;5110542;28;20389;-67
2022/10/28 09:51:03;;;;;;;;;;;;;;;;;;5109237;28;19909;-67
2022/10/28 09:53:29;;;;;;;;;;;;;;;;;;5108285;28;19908;-65
2022/10/28 09:55:55;;;;;;;;;;;;;;;;;;5108927;28;19947;-67
2022/10/28 09:58:21;;;;;;;;;;;;;;;;;;5108277;28;20354;-66
2022/10/28 10:00:47;;;;;;;;;;;;;;;;;;5108866;28;19912;-66
2022/10/28 10:03:13;;;;;;;;;;;;;;;;;;5108920;28;19987;-66
2022/10/28 10:05:39;;;;;;;;;;;;;;;;;;5107820;28;19977;-66
2022/10/28 10:08:41;;;;;;;;;;;;;;;;;;5109919;27;19939;-66
2022/10/28 10:11:07;;;;;;;;;;;;;;;;;;5108091;28;19947;-67
2022/10/28 10:13:33;;;;;;;;;;;;;;;;;;5110534;28;19947;-69
2022/10/28 10:15:59;;;;;;;;;;;;;;;;;;5110935;28;19953;-67
2022/10/28 10:18:25;;;;;;;;;;;;;;;;;;5110824;28;19953;-67
2022/10/28 10:20:51;;;;;;;;;;;;;;;;;;5110674;28;19955;-67
2022/10/28 10:23:17;;;;;;;;;;;;;;;;;;5109082;28;19915;-68
2022/10/28 10:25:43;;;;;;;;;;;;;;;;;;5108777;28;19908;-68
2022/10/28 10:28:08;;;;;;;;;;;;;;;;;;5108644;28;20031;-68
2022/10/28 10:30:34;;;;;;;;;;;;;;;;;;5109300;28;19908;-68
2022/10/28 10:33:00;;;;;;;;;;;;;;;;;;5109058;28;19912;-68
2022/10/28 10:35:27;;;;;;;;;;;;;;;;;;5108155;28;20131;-68
2022/10/28 10:37:52;;;;;;;;;;;;;;;;;;5108588;28;19908;-67
2022/10/28 10:40:18;;;;;;;;;;;;;;;;;;5110249;28;19915;-67
2022/10/28 10:42:44;;;;;;;;;;;;;;;;;;5109641;28;20045;-69
2022/10/28 10:45:10;;;;;;;;;;;;;;;;;;5110943;28;20372;-68
2022/10/28 10:47:36;;;;;;;;;;;;;;;;;;5110308;28;20280;-66
2022/10/28 10:50:02;;;;;;;;;;;;;;;;;;5112353;28;19915;-67
2022/10/28 10:52:28;;;;;;;;;;;;;;;;;;5109440;28;19912;-67
2022/10/28 10:54:54;;;;;;;;;;;;;;;;;;5110354;28;19953;-68
2022/10/28 10:57:20;;;;;;;;;;;;;;;;;;5102722;28;19908;-68
2022/10/28 11:01:54;;;;;;;;;;;;;;;;;;5110509;27;19916;-67
2022/10/28 11:04:20;;;;;;;;;;;;;;;;;;5110679;28;20007;-68
2022/10/28 11:06:46;;;;;;;;;;;;;;;;;;5109269;28;20282;-68
2022/10/28 11:09:12;;;;;;;;;;;;;;;;;;5108103;28;20292;-69
2022/10/28 11:11:38;;;;;;;;;;;;;;;;;;5109379;28;20279;-68
2022/10/28 11:14:04;;;;;;;;;;;;;;;;;;5108993;28;20553;-68
2022/10/28 11:16:30;;;;;;;;;;;;;;;;;;5109124;28;20311;-68
2022/10/28 11:18:56;;;;;;;;;;;;;;;;;;5107979;28;19953;-68
2022/10/28 11:21:21;;;;;;;;;;;;;;;;;;5109756;28;19963;-68
2022/10/28 11:23:47;;;;;;;;;;;;;;;;;;5110969;28;19908;-69
2022/10/28 11:26:13;;;;;;;;;;;;;;;;;;5110769;28;19919;-68
2022/10/28 11:28:39;;;;;;;;;;;;;;;;;;5110625;28;19918;-67
2022/10/28 11:31:05;;;;;;;;;;;;;;;;;;5111138;28;20003;-68
2022/10/28 11:33:31;;;;;;;;;;;;;;;;;;5110451;28;19922;-68
2022/10/28 11:35:57;;;;;;;;;;;;;;;;;;5110550;28;19908;-69
2022/10/28 11:38:23;;;;;;;;;;;;;;;;;;5110774;28;20372;-67
2022/10/28 11:40:49;;;;;;;;;;;;;;;;;;5110757;28;19922;-68
2022/10/28 11:43:15;;;;;;;;;;;;;;;;;;5110630;28;19908;-67
2022/10/28 11:45:41;;;;;;;;;;;;;;;;;;5109608;28;19918;-68
2022/10/28 11:48:07;;;;;;;;;;;;;;;;;;5110704;28;19958;-67
2022/10/28 11:50:33;;;;;;;;;;;;;;;;;;5108811;28;19908;-67
2022/10/28 11:52:59;;;;;;;;;;;;;;;;;;5110701;28;19908;-68
2022/10/28 11:55:25;;;;;;;;;;;;;;;;;;5111031;28;19943;-67
2022/10/28 11:57:50;;;;;;;;;;;;;;;;;;5110396;28;19915;-68
2022/10/28 12:00:16;;;;;;;;;;;;;;;;;;5110170;28;19950;-69
2022/10/28 12:02:42;;;;;;;;;;;;;;;;;;5109317;28;20013;-68
2022/10/28 12:05:08;;;;;;;;;;;;;;;;;;5108880;28;19916;-68
2022/10/28 12:07:34;;;;;;;;;;;;;;;;;;5110916;28;20332;-67
2022/10/28 12:10:00;;;;;;;;;;;;;;;;;;5110453;28;20326;-68
2022/10/28 12:12:26;;;;;;;;;;;;;;;;;;5101797;28;19915;-67
2022/10/28 12:14:52;;;;;;;;;;;;;;;;;;5096848;28;19915;-67
2022/10/28 12:17:18;;;;;;;;;;;;;;;;;;5096287;28;19908;-68
2022/10/28 12:19:44;;;;;;;;;;;;;;;;;;5096340;28;19912;-67
2022/10/28 12:22:10;;;;;;;;;;;;;;;;;;5096408;28;19912;-67
2022/10/28 12:24:36;;;;;;;;;;;;;;;;;;5095534;28;19909;-66
2022/10/28 12:27:03;;;;;;;;;;;;;;;;;;5095182;28;19973;-66
2022/10/28 12:29:29;;;;;;;;;;;;;;;;;;5096250;28;19908;-66
2022/10/28 12:31:55;;;;;;;;;;;;;;;;;;5094792;28;19961;-66
2022/10/28 12:34:21;;;;;;;;;;;;;;;;;;5096221;28;19947;-68
2022/10/28 12:36:47;;;;;;;;;;;;;;;;;;5096001;28;19915;-66
2022/10/28 12:39:13;;;;;;;;;;;;;;;;;;5095688;28;19908;-66
2022/10/28 12:41:38;;;;;;;;;;;;;;;;;;5094703;28;20003;-65
2022/10/28 12:44:04;;;;;;;;;;;;;;;;;;5096100;28;19915;-66
2022/10/28 12:46:30;;;;;;;;;;;;;;;;;;5093202;28;19908;-67
2022/10/28 12:48:56;;;;;;;;;;;;;;;;;;5096056;28;19908;-66
2022/10/28 12:51:22;;;;;;;;;;;;;;;;;;5090577;28;19955;-67
2022/10/28 12:53:48;;;;;;;;;;;;;;;;;;5090138;28;20003;-66
2022/10/28 12:56:14;;;;;;;;;;;;;;;;;;5095941;28;19973;-67
2022/10/28 12:58:40;;;;;;;;;;;;;;;;;;5095771;28;19912;-67
2022/10/28 13:01:06;;;;;;;;;;;;;;;;;;5093663;28;19920;-68
2022/10/28 13:03:32;;;;;;;;;;;;;;;;;;5095816;28;19953;-67
2022/10/28 13:05:58;;;;;;;;;;;;;;;;;;5095693;28;19908;-68
2022/10/28 13:08:24;;;;;;;;;;;;;;;;;;5095137;28;20373;-67
2022/10/28 13:10:50;;;;;;;;;;;;;;;;;;5094731;28;19956;-67
2022/10/28 13:13:16;;;;;;;;;;;;;;;;;;5094429;28;19908;-67
2022/10/28 13:15:42;;;;;;;;;;;;;;;;;;5095207;28;19908;-67
2022/10/28 13:18:08;;;;;;;;;;;;;;;;;;5095603;28;19916;-67
2022/10/28 13:20:33;;;;;;;;;;;;;;;;;;5095054;28;20375;-67
2022/10/28 13:22:59;;;;;;;;;;;;;;;;;;5094861;28;20359;-67
2022/10/28 13:25:25;;;;;;;;;;;;;;;;;;5095080;28;20390;-67
2022/10/28 13:27:51;;;;;;;;;;;;;;;;;;5094959;28;19953;-68
2022/10/28 13:30:17;;;;;;;;;;;;;;;;;;5095322;28;20359;-67
2022/10/28 13:32:43;;;;;;;;;;;;;;;;;;5095419;28;20360;-67
2022/10/28 13:35:09;;;;;;;;;;;;;;;;;;5095275;28;20352;-68
2022/10/28 13:37:36;;;;;;;;;;;;;;;;;;5095732;28;19908;-67
2022/10/28 13:40:02;;;;;;;;;;;;;;;;;;5095213;28;19916;-67
2022/10/28 13:42:28;;;;;;;;;;;;;;;;;;5094705;28;19908;-66
2022/10/28 13:44:54;;;;;;;;;;;;;;;;;;5095099;28;20002;-66
2022/10/28 13:47:20;;;;;;;;;;;;;;;;;;5094933;28;20283;-67
2022/10/28 13:49:46;;;;;;;;;;;;;;;;;;5094542;28;20316;-67
2022/10/28 13:52:12;;;;;;;;;;;;;;;;;;5094712;28;20283;-66
2022/10/28 13:54:38;;;;;;;;;;;;;;;;;;5094965;28;20013;-66
2022/10/28 13:57:04;;;;;;;;;;;;;;;;;;5094446;28;19912;-67
2022/10/28 13:59:30;;;;;;;;;;;;;;;;;;5095288;28;19948;-67
2022/10/28 14:01:56;;;;;;;;;;;;;;;;;;5094955;28;19908;-67
2022/10/28 14:04:22;;;;;;;;;;;;;;;;;;5094521;28;19911;-67
2022/10/28 14:06:48;;;;;;;;;;;;;;;;;;5094670;28;20028;-67
2022/10/28 14:09:14;;;;;;;;;;;;;;;;;;5094791;28;19923;-67
2022/10/28 14:11:40;;;;;;;;;;;;;;;;;;5092892;28;19908;-67
2022/10/28 14:14:05;;;;;;;;;;;;;;;;;;5094588;28;19952;-67
2022/10/28 14:16:31;;;;;;;;;;;;;;;;;;5094705;28;19909;-66
2022/10/28 14:18:59;;;;;;;;;;;;;;;;;;5094102;28;20009;-67
2022/10/28 14:21:25;;;;;;;;;;;;;;;;;;5094340;28;19920;-67
2022/10/28 14:23:51;;;;;;;;;;;;;;;;;;5093858;28;19908;-67
2022/10/28 14:26:16;;;;;;;;;;;;;;;;;;5094348;28;19908;-67
2022/10/28 14:28:42;;;;;;;;;;;;;;;;;;5093088;28;19951;-67
2022/10/28 14:33:34;;;;;;;;;;;;;;;;;;5094318;28;19920;-67
2022/10/28 14:36:00;;;;;;;;;;;;;;;;;;5093967;28;20387;-67
2022/10/28 14:38:26;;;;;;;;;;;;;;;;;;5093858;28;20387;-68
2022/10/28 14:40:52;;;;;;;;;;;;;;;;;;5094113;28;20376;-67
2022/10/28 14:43:18;;;;;;;;;;;;;;;;;;5092812;28;20382;-67
2022/10/28 14:45:44;;;;;;;;;;;;;;;;;;5093724;28;20284;-67
2022/10/28 14:48:10;;;;;;;;;;;;;;;;;;5094216;28;20316;-67
2022/10/28 14:50:36;;;;;;;;;;;;;;;;;;5094001;28;20325;-67
2022/10/28 14:53:03;;;;;;;;;;;;;;;;;;5093553;28;19908;-67
2022/10/28 14:55:29;;;;;;;;;;;;;;;;;;5093937;28;19908;-67
2022/10/28 14:57:55;;;;;;;;;;;;;;;;;;5093884;28;19912;-66
2022/10/28 15:00:21;;;;;;;;;;;;;;;;;;5092009;28;20341;-66
2022/10/28 15:02:47;;;;;;;;;;;;;;;;;;5093895;28;19908;-66
2022/10/28 15:05:13;;;;;;;;;;;;;;;;;;5094020;28;20283;-66
2022/10/28 15:07:39;;;;;;;;;;;;;;;;;;5093438;28;20283;-67
2022/10/28 15:10:05;;;;;;;;;;;;;;;;;;5093776;28;20353;-66
2022/10/28 15:12:31;;;;;;;;;;;;;;;;;;5093779;28;19908;-67
2022/10/28 15:14:57;;;;;;;;;;;;;;;;;;5093439;28;19908;-67
2022/10/28 15:17:23;;;;;;;;;;;;;;;;;;5093807;28;19908;-67
2022/10/28 15:19:49;;;;;;;;;;;;;;;;;;5094238;28;20378;-67
2022/10/28 15:22:15;;;;;;;;;;;;;;;;;;5093192;28;19987;-67
2022/10/28 15:24:41;;;;;;;;;;;;;;;;;;5093864;28;20283;-67
2022/10/28 15:27:07;;;;;;;;;;;;;;;;;;5091918;28;19955;-68
2022/10/28 15:29:33;;;;;;;;;;;;;;;;;;5092402;28;20318;-67
2022/10/28 15:31:59;;;;;;;;;;;;;;;;;;5093670;28;20305;-67
2022/10/28 15:34:24;;;;;;;;;;;;;;;;;;5093279;28;19908;-67
2022/10/28 15:36:50;;;;;;;;;;;;;;;;;;5093616;28;20000;-66
2022/10/28 15:39:16;;;;;;;;;;;;;;;;;;5093948;28;19908;-68
2022/10/28 15:41:42;;;;;;;;;;;;;;;;;;5091751;28;19916;-68
2022/10/28 15:44:08;;;;;;;;;;;;;;;;;;5093559;28;20378;-68
2022/10/28 15:46:34;;;;;;;;;;;;;;;;;;5092948;28;19919;-68
2022/10/28 15:49:00;;;;;;;;;;;;;;;;;;5096984;28;19908;-68
2022/10/28 15:58:23;;;;;;;;;;;;;;;;;;5111719;27;19912;-67
2022/10/28 16:00:49;;;;;;;;;;;;;;;;;;5111738;28;20002;-67
2022/10/28 16:03:15;;;;;;;;;;;;;;;;;;5111156;28;20426;-67
2022/10/28 16:09:18;;;;;;;;;;;;;;;;;;5091349;27;19934;-66
2022/10/28 16:11:56;;;;;;;;;;;;;;;;;;5091937;28;19916;-66
2022/10/28 16:17:34;;;;;;;;;;;;;;;;;;5091617;28;19916;-67
2022/10/28 16:20:00;;;;;;;;;;;;;;;;;;5091643;28;19951;-67
2022/10/28 16:24:52;;;;;;;;;;;;;;;;;;5091210;27;19917;-67
2022/10/28 16:29:09;;;;;;;;;;;;;;;;;;5112563;27;20290;-68
2022/10/28 16:31:35;;;;;;;;;;;;;;;;;;5111410;28;20007;-67
2022/10/28 16:34:21;;;;;;;;;;;;;;;;;;5111967;27;19916;-68
2022/10/28 16:36:47;;;;;;;;;;;;;;;;;;5110539;28;20015;-68
2022/10/28 16:39:13;;;;;;;;;;;;;;;;;;5111366;28;19908;-69
2022/10/28 16:41:39;;;;;;;;;;;;;;;;;;5110403;28;19914;-68
2022/10/28 16:44:05;;;;;;;;;;;;;;;;;;5111615;28;19908;-68
2022/10/28 16:46:31;;;;;;;;;;;;;;;;;;5111255;28;19957;-67
2022/10/28 16:48:57;;;;;;;;;;;;;;;;;;5111727;28;19953;-68
2022/10/28 16:52:43;;;;;;;;;;;;;;;;;;5091319;27;19917;-67
2022/10/28 17:02:04;;;;;;;;;;;;;;;;;;5111675;28;20402;-64
2022/10/28 17:04:30;;;;;;;;;;;;;;;;;;5110319;28;19943;-66
2022/10/28 17:06:57;;;;;;;;;;;;;;;;;;5111251;28;20382;-65
2022/10/28 17:09:25;;;;;;;;;;;;;;;;;;5111600;28;19964;-65
2022/10/28 17:11:51;;;;;;;;;;;;;;;;;;5110395;28;19915;-67
2022/10/28 17:14:17;;;;;;;;;;;;;;;;;;5111143;28;19908;-66
2022/10/28 17:16:43;;;;;;;;;;;;;;;;;;5111335;28;19912;-65
2022/10/28 17:19:09;;;;;;;;;;;;;;;;;;5111379;28;20014;-66
2022/10/28 17:21:35;;;;;;;;;;;;;;;;;;5110863;28;19908;-67
2022/10/28 17:24:01;;;;;;;;;;;;;;;;;;5109888;28;19908;-68
2022/10/28 17:26:27;;;;;;;;;;;;;;;;;;5111084;28;19908;-66
2022/10/28 17:28:53;;;;;;;;;;;;;;;;;;5111055;28;19977;-67
2022/10/28 17:32:09;;;;;;;;;;;;;;;;;;5112653;27;19916;-66
2022/10/28 17:34:35;;;;;;;;;;;;;;;;;;5111347;28;20435;-68
2022/10/28 17:39:34;;;;;;;;;;;;;;;;;;5112147;27;19916;-66
2022/10/28 17:42:00;;;;;;;;;;;;;;;;;;5111356;28;20022;-66
2022/10/28 17:45:29;;;;;;;;;;;;;;;;;;5091819;27;19923;-67
2022/10/28 17:49:11;;;;;;;;;;;;;;;;;;5152706;27;19998;-65
2022/10/28 17:51:37;;;;;;;;;;;;;;;;;;5134678;27;19911;-65
2022/10/28 17:57:11;;;;;;;;;;;;;;;;;;5071198;28;19923;-64
2022/10/28 18:02:24;;;;;;;;;;;;;;;;;;5111419;27;19922;-65
2022/10/28 18:04:50;;;;;;;;;;;;;;;;;;5111745;28;19951;-65
2022/10/28 18:08:19;;;;;;;;;;;;;;;;;;5072079;28;19935;-66